sensor_id;sensor_type;location;lat;lon;timestamp;pressure;altitude;pressure_sealevel;temperature;humidity
55289;BME280;41154;45.394;5.734;2022-09-09T00:03:43;96978.75;;;15.73;100.00
55289;BME280;41154;45.394;5.734;2022-09-09T00:12:00;96977.88;;;15.83;100.00
55289;BME280;41154;45.394;5.734;2022-09-09T00:17:06;96973.06;;;16.09;100.00
55289;BME280;41154;45.394;5.734;2022-09-09T00:22:21;96968.25;;;16.01;100.00
55289;BME280;41154;45.394;5.734;2022-09-09T00:24:53;96954.53;;;16.22;100.00
55289;BME280;41154;45.394;5.734;2022-09-09T00:27:22;96957.50;;;15.96;100.00
55289;BME280;41154;45.394;5.734;2022-09-09T00:30:00;96953.84;;;15.81;100.00
55289;BME280;41154;45.394;5.734;2022-09-09T00:32:30;96957.53;;;15.56;100.00
55289;BME280;41154;45.394;5.734;2022-09-09T00:35:23;96964.38;;;15.49;100.00
55289;BME280;41154;45.394;5.734;2022-09-09T00:37:53;96967.03;;;15.54;100.00
55289;BME280;41154;45.394;5.734;2022-09-09T00:40:29;96957.41;;;15.77;100.00
55289;BME280;41154;45.394;5.734;2022-09-09T00:43:26;96961.94;;;15.81;100.00
55289;BME280;41154;45.394;5.734;2022-09-09T00:49:04;96948.53;;;16.01;100.00
55289;BME280;41154;45.394;5.734;2022-09-09T00:57:13;96928.56;;;15.62;100.00
55289;BME280;41154;45.394;5.734;2022-09-09T01:02:27;96915.53;;;15.35;100.00
55289;BME280;41154;45.394;5.734;2022-09-09T01:04:54;96903.78;;;15.20;100.00
55289;BME280;41154;45.394;5.734;2022-09-09T01:07:20;96903.53;;;15.17;100.00
55289;BME280;41154;45.394;5.734;2022-09-09T01:15:03;96905.16;;;15.18;100.00
55289;BME280;41154;45.394;5.734;2022-09-09T01:17:46;96906.84;;;15.08;100.00
55289;BME280;41154;45.394;5.734;2022-09-09T01:20:27;96914.88;;;15.19;100.00
55289;BME280;41154;45.394;5.734;2022-09-09T01:26:30;96916.13;;;14.92;100.00
55289;BME280;41154;45.394;5.734;2022-09-09T01:29:01;96909.19;;;14.81;100.00
55289;BME280;41154;45.394;5.734;2022-09-09T01:31:40;96917.84;;;14.78;100.00
55289;BME280;41154;45.394;5.734;2022-09-09T01:34:12;96929.97;;;14.80;100.00
55289;BME280;41154;45.394;5.734;2022-09-09T01:36:56;96920.00;;;14.81;100.00
55289;BME280;41154;45.394;5.734;2022-09-09T01:39:24;96921.78;;;14.96;100.00
55289;BME280;41154;45.394;5.734;2022-09-09T01:41:59;96915.00;;;14.98;100.00
55289;BME280;41154;45.394;5.734;2022-09-09T01:44:27;96920.19;;;14.95;100.00
55289;BME280;41154;45.394;5.734;2022-09-09T01:46:53;96916.97;;;14.87;100.00
55289;BME280;41154;45.394;5.734;2022-09-09T01:49:20;96915.81;;;15.04;100.00
55289;BME280;41154;45.394;5.734;2022-09-09T01:51:50;96902.31;;;14.99;100.00
55289;BME280;41154;45.394;5.734;2022-09-09T01:54:22;96906.41;;;14.96;100.00
55289;BME280;41154;45.394;5.734;2022-09-09T02:02:32;96913.75;;;14.85;100.00
55289;BME280;41154;45.394;5.734;2022-09-09T02:08:07;96903.88;;;14.65;100.00
55289;BME280;41154;45.394;5.734;2022-09-09T02:13:32;96906.66;;;14.45;100.00
55289;BME280;41154;45.394;5.734;2022-09-09T02:16:22;96895.91;;;14.34;100.00
55289;BME280;41154;45.394;5.734;2022-09-09T02:22:03;96905.16;;;14.13;100.00
55289;BME280;41154;45.394;5.734;2022-09-09T02:24:35;96894.34;;;14.13;100.00
55289;BME280;41154;45.394;5.734;2022-09-09T02:27:23;96894.38;;;14.08;100.00
55289;BME280;41154;45.394;5.734;2022-09-09T02:29:51;96904.06;;;14.14;100.00
55289;BME280;41154;45.394;5.734;2022-09-09T02:32:29;96906.78;;;14.14;100.00
55289;BME280;41154;45.394;5.734;2022-09-09T02:35:04;96909.50;;;14.03;100.00
55289;BME280;41154;45.394;5.734;2022-09-09T02:37:35;96915.41;;;14.11;100.00
55289;BME280;41154;45.394;5.734;2022-09-09T02:40:07;96907.72;;;14.44;100.00
55289;BME280;41154;45.394;5.734;2022-09-09T02:42:45;96905.13;;;14.23;100.00
55289;BME280;41154;45.394;5.734;2022-09-09T02:45:13;96902.22;;;14.04;100.00
55289;BME280;41154;45.394;5.734;2022-09-09T02:48:11;96904.09;;;14.09;100.00
55289;BME280;41154;45.394;5.734;2022-09-09T02:50:54;96901.69;;;14.02;100.00
55289;BME280;41154;45.394;5.734;2022-09-09T02:56:09;96900.34;;;13.99;100.00
55289;BME280;41154;45.394;5.734;2022-09-09T02:58:42;96905.22;;;13.92;100.00
55289;BME280;41154;45.394;5.734;2022-09-09T03:01:08;96904.09;;;14.03;100.00
55289;BME280;41154;45.394;5.734;2022-09-09T03:03:35;96907.34;;;14.00;100.00
55289;BME280;41154;45.394;5.734;2022-09-09T03:06:06;96914.09;;;14.03;100.00
55289;BME280;41154;45.394;5.734;2022-09-09T03:08:32;96920.81;;;14.11;100.00
55289;BME280;41154;45.394;5.734;2022-09-09T03:10:59;96913.28;;;14.02;100.00
55289;BME280;41154;45.394;5.734;2022-09-09T03:13:31;96918.16;;;13.95;100.00
55289;BME280;41154;45.394;5.734;2022-09-09T03:15:57;96920.31;;;13.98;100.00
55289;BME280;41154;45.394;5.734;2022-09-09T03:18:23;96918.88;;;14.22;100.00
55289;BME280;41154;45.394;5.734;2022-09-09T03:20:52;96922.41;;;14.17;100.00
55289;BME280;41154;45.394;5.734;2022-09-09T03:23:20;96909.41;;;14.24;100.00
55289;BME280;41154;45.394;5.734;2022-09-09T03:25:48;96910.53;;;14.23;100.00
55289;BME280;41154;45.394;5.734;2022-09-09T03:28:18;96910.06;;;13.95;100.00
55289;BME280;41154;45.394;5.734;2022-09-09T03:30:45;96914.88;;;14.09;100.00
55289;BME280;41154;45.394;5.734;2022-09-09T03:33:11;96901.94;;;14.00;100.00
55289;BME280;41154;45.394;5.734;2022-09-09T03:35:38;96910.00;;;14.16;100.00
55289;BME280;41154;45.394;5.734;2022-09-09T03:38:05;96918.88;;;14.27;100.00
55289;BME280;41154;45.394;5.734;2022-09-09T03:40:33;96906.00;;;14.03;100.00
55289;BME280;41154;45.394;5.734;2022-09-09T03:42:59;96910.06;;;13.95;100.00
55289;BME280;41154;45.394;5.734;2022-09-09T03:45:25;96909.53;;;13.93;100.00
55289;BME280;41154;45.394;5.734;2022-09-09T03:47:51;96907.94;;;13.87;100.00
55289;BME280;41154;45.394;5.734;2022-09-09T03:50:17;96911.44;;;13.82;100.00
55289;BME280;41154;45.394;5.734;2022-09-09T03:52:46;96915.47;;;13.95;100.00
55289;BME280;41154;45.394;5.734;2022-09-09T03:55:20;96917.59;;;13.98;100.00
55289;BME280;41154;45.394;5.734;2022-09-09T03:57:46;96919.22;;;13.94;100.00
55289;BME280;41154;45.394;5.734;2022-09-09T04:00:12;96923.50;;;14.11;100.00
55289;BME280;41154;45.394;5.734;2022-09-09T04:02:49;96924.28;;;14.22;100.00
55289;BME280;41154;45.394;5.734;2022-09-09T04:05:16;96923.44;;;14.31;100.00
55289;BME280;41154;45.394;5.734;2022-09-09T04:07:44;96919.34;;;14.39;100.00
55289;BME280;41154;45.394;5.734;2022-09-09T04:10:11;96918.56;;;14.33;100.00
55289;BME280;41154;45.394;5.734;2022-09-09T04:12:39;96924.78;;;14.29;100.00
55289;BME280;41154;45.394;5.734;2022-09-09T04:15:05;96923.47;;;14.26;100.00
55289;BME280;41154;45.394;5.734;2022-09-09T04:17:32;96915.38;;;14.26;100.00
55289;BME280;41154;45.394;5.734;2022-09-09T04:19:58;96917.22;;;14.26;100.00
55289;BME280;41154;45.394;5.734;2022-09-09T04:22:24;96913.53;;;14.11;100.00
55289;BME280;41154;45.394;5.734;2022-09-09T04:24:50;96918.66;;;14.08;100.00
55289;BME280;41154;45.394;5.734;2022-09-09T04:27:18;96917.84;;;14.02;100.00
55289;BME280;41154;45.394;5.734;2022-09-09T04:29:44;96917.59;;;14.03;100.00
55289;BME280;41154;45.394;5.734;2022-09-09T04:32:11;96920.00;;;14.05;100.00
55289;BME280;41154;45.394;5.734;2022-09-09T04:34:39;96913.81;;;14.05;100.00
55289;BME280;41154;45.394;5.734;2022-09-09T04:37:08;96921.41;;;13.92;100.00
55289;BME280;41154;45.394;5.734;2022-09-09T04:39:34;96929.22;;;13.94;100.00
55289;BME280;41154;45.394;5.734;2022-09-09T04:42:00;96927.31;;;13.99;100.00
55289;BME280;41154;45.394;5.734;2022-09-09T04:44:26;96926.53;;;13.89;100.00
55289;BME280;41154;45.394;5.734;2022-09-09T04:46:52;96928.94;;;13.85;100.00
55289;BME280;41154;45.394;5.734;2022-09-09T04:49:18;96926.78;;;13.82;100.00
55289;BME280;41154;45.394;5.734;2022-09-09T04:51:44;96926.78;;;13.82;100.00
55289;BME280;41154;45.394;5.734;2022-09-09T04:54:12;96928.09;;;14.10;100.00
55289;BME280;41154;45.394;5.734;2022-09-09T04:56:39;96926.78;;;14.02;100.00
55289;BME280;41154;45.394;5.734;2022-09-09T04:59:07;96933.28;;;13.86;100.00
55289;BME280;41154;45.394;5.734;2022-09-09T05:01:40;96935.72;;;13.72;100.00
55289;BME280;41154;45.394;5.734;2022-09-09T05:04:06;96927.09;;;13.75;100.00
55289;BME280;41154;45.394;5.734;2022-09-09T05:06:33;96932.75;;;13.79;100.00
55289;BME280;41154;45.394;5.734;2022-09-09T05:09:01;96931.69;;;13.75;100.00
55289;BME280;41154;45.394;5.734;2022-09-09T05:11:30;96939.47;;;13.71;100.00
55289;BME280;41154;45.394;5.734;2022-09-09T05:14:13;96939.47;;;13.71;100.00
55289;BME280;41154;45.394;5.734;2022-09-09T05:16:40;96942.44;;;13.70;100.00
55289;BME280;41154;45.394;5.734;2022-09-09T05:19:07;96946.78;;;13.71;100.00
55289;BME280;41154;45.394;5.734;2022-09-09T05:21:46;96960.81;;;13.57;100.00
55289;BME280;41154;45.394;5.734;2022-09-09T05:24:14;96961.88;;;13.56;100.00
55289;BME280;41154;45.394;5.734;2022-09-09T05:26:40;96960.00;;;13.67;100.00
55289;BME280;41154;45.394;5.734;2022-09-09T05:29:06;96960.00;;;13.67;100.00
55289;BME280;41154;45.394;5.734;2022-09-09T05:31:33;96965.66;;;13.60;100.00
55289;BME280;41154;45.394;5.734;2022-09-09T05:34:02;96956.22;;;13.53;100.00
55289;BME280;41154;45.394;5.734;2022-09-09T05:36:28;96969.97;;;13.46;100.00
55289;BME280;41154;45.394;5.734;2022-09-09T05:38:55;96976.16;;;13.41;100.00
55289;BME280;41154;45.394;5.734;2022-09-09T05:41:24;96978.59;;;13.63;100.00
55289;BME280;41154;45.394;5.734;2022-09-09T05:43:53;96973.19;;;13.74;100.00
55289;BME280;41154;45.394;5.734;2022-09-09T05:46:21;96983.97;;;13.84;100.00
55289;BME280;41154;45.394;5.734;2022-09-09T05:48:50;96989.91;;;13.86;100.00
55289;BME280;41154;45.394;5.734;2022-09-09T05:51:20;96993.69;;;13.90;100.00
55289;BME280;41154;45.394;5.734;2022-09-09T05:53:48;96997.69;;;13.93;100.00
55289;BME280;41154;45.394;5.734;2022-09-09T05:56:22;96997.38;;;14.25;100.00
55289;BME280;41154;45.394;5.734;2022-09-09T05:58:49;96989.22;;;14.51;100.00
55289;BME280;41154;45.394;5.734;2022-09-09T06:01:22;96998.44;;;14.34;100.00
55289;BME280;41154;45.394;5.734;2022-09-09T06:03:50;97001.16;;;14.19;100.00
55289;BME280;41154;45.394;5.734;2022-09-09T06:06:27;97000.34;;;14.24;100.00
55289;BME280;41154;45.394;5.734;2022-09-09T06:08:56;96995.47;;;14.31;100.00
55289;BME280;41154;45.394;5.734;2022-09-09T06:11:27;97006.50;;;14.39;100.00
55289;BME280;41154;45.394;5.734;2022-09-09T06:13:54;97004.22;;;14.83;100.00
55289;BME280;41154;45.394;5.734;2022-09-09T06:16:22;97008.56;;;14.79;100.00
55289;BME280;41154;45.394;5.734;2022-09-09T06:18:50;97002.09;;;14.74;100.00
55289;BME280;41154;45.394;5.734;2022-09-09T06:21:18;97008.56;;;14.79;100.00
55289;BME280;41154;45.394;5.734;2022-09-09T06:23:45;97017.19;;;14.76;100.00
55289;BME280;41154;45.394;5.734;2022-09-09T06:26:20;97021.03;;;14.64;100.00
55289;BME280;41154;45.394;5.734;2022-09-09T06:28:49;97019.94;;;14.70;100.00
55289;BME280;41154;45.394;5.734;2022-09-09T06:31:17;97019.16;;;14.65;100.00
55289;BME280;41154;45.394;5.734;2022-09-09T06:33:48;97016.09;;;14.87;100.00
55289;BME280;41154;45.394;5.734;2022-09-09T06:36:18;97020.41;;;14.88;100.00
55289;BME280;41154;45.394;5.734;2022-09-09T06:38:45;97019.31;;;14.89;100.00
55289;BME280;41154;45.394;5.734;2022-09-09T06:41:15;97025.31;;;15.31;100.00
55289;BME280;41154;45.394;5.734;2022-09-09T06:43:44;97023.94;;;15.33;100.00
55289;BME280;41154;45.394;5.734;2022-09-09T06:46:14;97026.00;;;17.17;100.00
55289;BME280;41154;45.394;5.734;2022-09-09T06:48:40;97028.06;;;18.71;100.00
55289;BME280;41154;45.394;5.734;2022-09-09T06:51:15;97026.66;;;18.74;100.00
55289;BME280;41154;45.394;5.734;2022-09-09T06:53:43;97030.06;;;18.38;100.00
55289;BME280;41154;45.394;5.734;2022-09-09T06:58:39;97039.81;;;17.92;100.00
55289;BME280;41154;45.394;5.734;2022-09-09T07:01:15;97030.88;;;16.72;100.00
55289;BME280;41154;45.394;5.734;2022-09-09T07:03:42;97030.88;;;17.72;100.00
55289;BME280;41154;45.394;5.734;2022-09-09T07:06:14;97033.91;;;19.93;100.00
55289;BME280;41154;45.394;5.734;2022-09-09T07:08:41;97033.84;;;20.38;100.00
55289;BME280;41154;45.394;5.734;2022-09-09T07:11:08;97024.16;;;22.17;99.59
55289;BME280;41154;45.394;5.734;2022-09-09T07:13:36;97035.44;;;20.39;100.00
55289;BME280;41154;45.394;5.734;2022-09-09T07:16:08;97034.94;;;20.69;100.00
55289;BME280;41154;45.394;5.734;2022-09-09T07:18:35;97032.97;;;23.18;87.56
55289;BME280;41154;45.394;5.734;2022-09-09T07:21:02;97030.31;;;24.85;78.62
55289;BME280;41154;45.394;5.734;2022-09-09T07:23:29;97025.25;;;24.16;74.54
55289;BME280;41154;45.394;5.734;2022-09-09T07:25:56;97034.09;;;25.05;72.92
55289;BME280;41154;45.394;5.734;2022-09-09T07:28:22;97026.53;;;26.08;68.92
55289;BME280;41154;45.394;5.734;2022-09-09T07:30:56;97031.03;;;23.18;76.59
55289;BME280;41154;45.394;5.734;2022-09-09T07:33:23;97033.44;;;24.37;75.42
55289;BME280;41154;45.394;5.734;2022-09-09T07:35:50;97037.81;;;25.90;67.78
55289;BME280;41154;45.394;5.734;2022-09-09T07:38:16;97034.94;;;26.59;65.33
55289;BME280;41154;45.394;5.734;2022-09-09T07:40:42;97039.69;;;26.90;63.00
55289;BME280;41154;45.394;5.734;2022-09-09T07:43:09;97034.31;;;28.04;57.86
55289;BME280;41154;45.394;5.734;2022-09-09T07:45:35;97039.22;;;28.57;56.37
55289;BME280;41154;45.394;5.734;2022-09-09T07:48:01;97045.41;;;30.07;51.97
55289;BME280;41154;45.394;5.734;2022-09-09T07:50:28;97044.06;;;28.41;56.73
55289;BME280;41154;45.394;5.734;2022-09-09T07:52:54;97043.50;;;26.86;60.52
55289;BME280;41154;45.394;5.734;2022-09-09T07:55:21;97044.03;;;26.92;60.88
55289;BME280;41154;45.394;5.734;2022-09-09T07:57:49;97045.13;;;26.71;60.31
55289;BME280;41154;45.394;5.734;2022-09-09T08:00:15;97038.47;;;26.44;62.23
55289;BME280;41154;45.394;5.734;2022-09-09T08:02:46;97038.28;;;28.26;55.46
55289;BME280;41154;45.394;5.734;2022-09-09T08:05:12;97035.44;;;27.64;59.85
55289;BME280;41154;45.394;5.734;2022-09-09T08:07:39;97038.59;;;30.35;51.44
55289;BME280;41154;45.394;5.734;2022-09-09T08:10:05;97047.53;;;28.80;54.44
55289;BME280;41154;45.394;5.734;2022-09-09T08:12:34;97039.94;;;28.31;54.61
55289;BME280;41154;45.394;5.734;2022-09-09T08:15:00;97032.72;;;28.46;53.99
55289;BME280;41154;45.394;5.734;2022-09-09T08:17:30;97030.00;;;28.92;52.93
55289;BME280;41154;45.394;5.734;2022-09-09T08:19:58;97031.63;;;26.82;56.97
55289;BME280;41154;45.394;5.734;2022-09-09T08:22:33;97027.53;;;27.62;57.01
55289;BME280;41154;45.394;5.734;2022-09-09T08:24:59;97040.75;;;27.73;55.79
55289;BME280;41154;45.394;5.734;2022-09-09T08:27:25;97041.34;;;27.82;54.88
55289;BME280;41154;45.394;5.734;2022-09-09T08:29:53;97042.31;;;28.52;56.43
55289;BME280;41154;45.394;5.734;2022-09-09T08:32:18;97042.50;;;27.61;58.30
55289;BME280;41154;45.394;5.734;2022-09-09T08:34:45;97049.44;;;28.76;58.33
55289;BME280;41154;45.394;5.734;2022-09-09T08:37:15;97047.25;;;27.29;55.96
55289;BME280;41154;45.394;5.734;2022-09-09T08:39:42;97051.78;;;28.31;52.60
55289;BME280;41154;45.394;5.734;2022-09-09T08:42:22;97038.28;;;27.87;56.50
55289;BME280;41154;45.394;5.734;2022-09-09T08:45:19;97038.16;;;31.15;47.36
55289;BME280;41154;45.394;5.734;2022-09-09T08:48:11;97048.25;;;30.49;49.43
55289;BME280;41154;45.394;5.734;2022-09-09T08:50:42;97046.00;;;29.90;46.66
55289;BME280;41154;45.394;5.734;2022-09-09T08:53:22;97045.88;;;30.13;46.61
55289;BME280;41154;45.394;5.734;2022-09-09T08:55:54;97048.78;;;30.27;45.07
55289;BME280;41154;45.394;5.734;2022-09-09T08:58:28;97045.28;;;29.13;47.41
55289;BME280;41154;45.394;5.734;2022-09-09T09:06:49;97051.22;;;28.88;49.48
55289;BME280;41154;45.394;5.734;2022-09-09T09:12:19;97054.66;;;27.09;49.48
55289;BME280;41154;45.394;5.734;2022-09-09T09:14:48;97055.38;;;26.14;55.64
55289;BME280;41154;45.394;5.734;2022-09-09T09:17:23;97055.22;;;24.67;60.25
55289;BME280;41154;45.394;5.734;2022-09-09T09:19:51;97057.50;;;24.90;59.21
55289;BME280;41154;45.394;5.734;2022-09-09T09:28:17;97057.50;;;24.77;58.51
55289;BME280;41154;45.394;5.734;2022-09-09T09:30:49;97051.41;;;25.58;54.83
55289;BME280;41154;45.394;5.734;2022-09-09T09:35:57;97049.03;;;24.58;65.04
55289;BME280;41154;45.394;5.734;2022-09-09T09:38:27;97051.69;;;24.79;57.48
55289;BME280;41154;45.394;5.734;2022-09-09T09:40:58;97044.94;;;25.14;58.66
55289;BME280;41154;45.394;5.734;2022-09-09T09:43:36;97038.66;;;24.30;59.80
55289;BME280;41154;45.394;5.734;2022-09-09T09:46:19;97036.06;;;23.79;54.67
55289;BME280;41154;45.394;5.734;2022-09-09T09:49:00;97034.19;;;24.26;58.21
55289;BME280;41154;45.394;5.734;2022-09-09T09:51:29;97030.00;;;24.28;62.62
55289;BME280;41154;45.394;5.734;2022-09-09T09:57:08;97039.75;;;24.50;61.40
55289;BME280;41154;45.394;5.734;2022-09-09T09:59:35;97030.13;;;23.98;56.64
55289;BME280;41154;45.394;5.734;2022-09-09T10:02:23;97032.81;;;23.86;58.40
55289;BME280;41154;45.394;5.734;2022-09-09T10:05:13;97034.53;;;24.24;59.55
55289;BME280;41154;45.394;5.734;2022-09-09T10:07:41;97029.72;;;24.21;59.57
55289;BME280;41154;45.394;5.734;2022-09-09T10:10:27;97025.25;;;23.83;62.07
55289;BME280;41154;45.394;5.734;2022-09-09T10:13:14;97023.69;;;24.15;58.00
55289;BME280;41154;45.394;5.734;2022-09-09T10:21:15;97022.19;;;23.63;59.56
55289;BME280;41154;45.394;5.734;2022-09-09T10:26:55;97026.78;;;23.50;66.52
55289;BME280;41154;45.394;5.734;2022-09-09T10:32:10;97018.31;;;23.22;61.87
55289;BME280;41154;45.394;5.734;2022-09-09T10:43:45;97021.09;;;22.75;58.85
55289;BME280;41154;45.394;5.734;2022-09-09T10:46:33;97021.91;;;23.14;59.31
55289;BME280;41154;45.394;5.734;2022-09-09T10:49:20;97014.91;;;23.46;62.87
55289;BME280;41154;45.394;5.734;2022-09-09T10:54:28;97022.84;;;23.60;62.32
55289;BME280;41154;45.394;5.734;2022-09-09T10:57:10;97026.09;;;23.75;57.19
55289;BME280;41154;45.394;5.734;2022-09-09T10:59:47;97019.03;;;23.52;60.56
55289;BME280;41154;45.394;5.734;2022-09-09T11:02:18;97011.97;;;23.94;58.70
55289;BME280;41154;45.394;5.734;2022-09-09T11:04:53;97013.63;;;23.65;62.37
55289;BME280;41154;45.394;5.734;2022-09-09T11:07:41;97008.63;;;23.88;63.08
55289;BME280;41154;45.394;5.734;2022-09-09T11:10:40;97015.63;;;23.77;58.76
55289;BME280;41154;45.394;5.734;2022-09-09T11:13:16;97011.75;;;23.99;65.63
55289;BME280;41154;45.394;5.734;2022-09-09T11:15:48;97011.44;;;24.13;60.84
55289;BME280;41154;45.394;5.734;2022-09-09T11:18:21;97006.69;;;23.46;59.91
55289;BME280;41154;45.394;5.734;2022-09-09T11:20:54;97012.09;;;23.13;58.53
55289;BME280;41154;45.394;5.734;2022-09-09T11:23:34;97007.22;;;23.40;59.95
55289;BME280;41154;45.394;5.734;2022-09-09T11:26:05;97003.41;;;23.32;57.18
55289;BME280;41154;45.394;5.734;2022-09-09T11:28:56;97001.63;;;22.76;58.82
55289;BME280;41154;45.394;5.734;2022-09-09T11:31:44;97000.72;;;22.93;61.05
55289;BME280;41154;45.394;5.734;2022-09-09T11:40:09;97000.81;;;23.14;64.15
55289;BME280;41154;45.394;5.734;2022-09-09T11:42:40;96992.47;;;22.42;60.03
55289;BME280;41154;45.394;5.734;2022-09-09T11:45:26;97008.34;;;22.88;60.76
55289;BME280;41154;45.394;5.734;2022-09-09T11:47:56;97004.69;;;22.75;59.55
55289;BME280;41154;45.394;5.734;2022-09-09T11:52:49;97005.22;;;23.28;63.03
55289;BME280;41154;45.394;5.734;2022-09-09T11:55:29;97008.03;;;23.19;59.77
55289;BME280;41154;45.394;5.734;2022-09-09T11:58:17;97014.66;;;22.79;59.63
55289;BME280;41154;45.394;5.734;2022-09-09T12:00:46;97012.25;;;23.08;63.26
55289;BME280;41154;45.394;5.734;2022-09-09T12:03:47;97026.06;;;23.41;60.43
55289;BME280;41154;45.394;5.734;2022-09-09T12:09:11;97015.47;;;23.10;58.66
55289;BME280;41154;45.394;5.734;2022-09-09T12:11:41;97014.09;;;23.25;56.31
55289;BME280;41154;45.394;5.734;2022-09-09T12:19:40;97013.78;;;23.47;58.26
55289;BME280;41154;45.394;5.734;2022-09-09T12:27:42;97017.03;;;23.62;59.09
55289;BME280;41154;45.394;5.734;2022-09-09T12:30:14;97018.97;;;23.61;55.29
55289;BME280;41154;45.394;5.734;2022-09-09T12:32:41;97008.53;;;23.76;57.19
55289;BME280;41154;45.394;5.734;2022-09-09T12:35:13;97015.63;;;23.77;58.24
55289;BME280;41154;45.394;5.734;2022-09-09T12:37:54;97011.97;;;23.51;56.13
55289;BME280;41154;45.394;5.734;2022-09-09T12:40:30;97010.81;;;23.52;56.86
55289;BME280;41154;45.394;5.734;2022-09-09T12:42:58;96999.75;;;23.49;52.99
55289;BME280;41154;45.394;5.734;2022-09-09T12:45:30;97001.03;;;23.01;54.67
55289;BME280;41154;45.394;5.734;2022-09-09T12:47:57;97001.69;;;22.97;55.42
55289;BME280;41154;45.394;5.734;2022-09-09T12:50:31;97001.97;;;23.05;55.97
55289;BME280;41154;45.394;5.734;2022-09-09T12:53:12;96994.13;;;23.24;55.15
55289;BME280;41154;45.394;5.734;2022-09-09T12:55:56;96995.22;;;23.53;53.47
55289;BME280;41154;45.394;5.734;2022-09-09T12:58:23;96984.75;;;23.89;54.13
55289;BME280;41154;45.394;5.734;2022-09-09T13:00:54;96984.91;;;23.71;53.51
55289;BME280;41154;45.394;5.734;2022-09-09T13:03:24;96983.53;;;23.44;51.08
55289;BME280;41154;45.394;5.734;2022-09-09T13:05:54;96982.81;;;23.35;52.06
55289;BME280;41154;45.394;5.734;2022-09-09T13:08:24;96980.78;;;23.65;53.53
55289;BME280;41154;45.394;5.734;2022-09-09T13:11:04;96972.44;;;23.61;53.00
55289;BME280;41154;45.394;5.734;2022-09-09T13:13:35;96984.69;;;23.76;49.67
55289;BME280;41154;45.394;5.734;2022-09-09T13:16:03;96985.38;;;23.94;47.11
55289;BME280;41154;45.394;5.734;2022-09-09T13:18:33;96974.34;;;23.82;49.63
55289;BME280;41154;45.394;5.734;2022-09-09T13:20:59;96980.34;;;24.42;48.49
55289;BME280;41154;45.394;5.734;2022-09-09T13:23:30;96977.56;;;25.16;48.45
55289;BME280;41154;45.394;5.734;2022-09-09T13:26:21;96979.56;;;24.66;46.70
55289;BME280;41154;45.394;5.734;2022-09-09T13:28:48;96977.06;;;23.82;49.72
55289;BME280;41154;45.394;5.734;2022-09-09T13:31:40;96976.22;;;23.69;53.45
55289;BME280;41154;45.394;5.734;2022-09-09T13:34:30;96975.69;;;23.97;54.63
55289;BME280;41154;45.394;5.734;2022-09-09T13:37:01;96983.72;;;23.60;54.20
55289;BME280;41154;45.394;5.734;2022-09-09T13:39:34;96987.78;;;22.82;53.90
55289;BME280;41154;45.394;5.734;2022-09-09T13:42:02;96970.44;;;22.77;55.24
55289;BME280;41154;45.394;5.734;2022-09-09T13:44:31;96975.63;;;22.14;57.77
55289;BME280;41154;45.394;5.734;2022-09-09T13:47:05;96976.19;;;21.81;55.55
55289;BME280;41154;45.394;5.734;2022-09-09T13:49:31;96980.38;;;21.87;58.49
55289;BME280;41154;45.394;5.734;2022-09-09T13:52:13;96984.75;;;21.71;57.76
55289;BME280;41154;45.394;5.734;2022-09-09T13:54:40;96982.47;;;21.64;59.59
55289;BME280;41154;45.394;5.734;2022-09-09T13:57:15;96986.31;;;21.72;59.99
55289;BME280;41154;45.394;5.734;2022-09-09T13:59:40;96976.06;;;21.78;60.22
55289;BME280;41154;45.394;5.734;2022-09-09T14:02:07;96988.09;;;21.77;59.92
55289;BME280;41154;45.394;5.734;2022-09-09T14:04:33;96984.34;;;22.07;60.22
55289;BME280;41154;45.394;5.734;2022-09-09T14:07:00;96985.81;;;22.05;60.84
55289;BME280;41154;45.394;5.734;2022-09-09T14:09:27;96980.91;;;22.37;59.79
55289;BME280;41154;45.394;5.734;2022-09-09T14:11:52;96980.22;;;22.49;58.40
55289;BME280;41154;45.394;5.734;2022-09-09T14:14:20;96977.63;;;22.52;60.12
55289;BME280;41154;45.394;5.734;2022-09-09T14:16:46;96979.31;;;22.27;59.22
55289;BME280;41154;45.394;5.734;2022-09-09T14:19:12;96975.75;;;22.26;60.13
55289;BME280;41154;45.394;5.734;2022-09-09T14:21:41;96972.25;;;22.17;60.73
55289;BME280;41154;45.394;5.734;2022-09-09T14:24:07;96973.69;;;22.23;60.57
55289;BME280;41154;45.394;5.734;2022-09-09T14:26:33;96971.59;;;22.38;60.82
55289;BME280;41154;45.394;5.734;2022-09-09T14:28:58;96964.88;;;22.18;57.99
55289;BME280;41154;45.394;5.734;2022-09-09T14:31:25;96974.03;;;22.31;58.56
55289;BME280;41154;45.394;5.734;2022-09-09T14:33:51;96962.91;;;22.36;59.82
55289;BME280;41154;45.394;5.734;2022-09-09T14:36:18;96974.47;;;22.33;59.53
55289;BME280;41154;45.394;5.734;2022-09-09T14:38:44;96973.34;;;22.25;59.95
55289;BME280;41154;45.394;5.734;2022-09-09T14:41:15;96970.31;;;22.65;60.03
55289;BME280;41154;45.394;5.734;2022-09-09T14:43:45;96966.50;;;22.87;58.38
55289;BME280;41154;45.394;5.734;2022-09-09T14:46:16;96973.31;;;23.11;59.24
55289;BME280;41154;45.394;5.734;2022-09-09T14:48:43;96964.38;;;23.23;56.85
55289;BME280;41154;45.394;5.734;2022-09-09T14:51:18;96964.19;;;22.98;56.16
55289;BME280;41154;45.394;5.734;2022-09-09T14:53:45;96971.41;;;23.03;52.50
55289;BME280;41154;45.394;5.734;2022-09-09T14:56:16;96962.72;;;23.01;52.99
55289;BME280;41154;45.394;5.734;2022-09-09T14:58:42;96958.38;;;23.08;53.61
55289;BME280;41154;45.394;5.734;2022-09-09T15:01:11;96961.41;;;23.07;52.34
55289;BME280;41154;45.394;5.734;2022-09-09T15:03:39;96959.72;;;22.64;56.49
55289;BME280;41154;45.394;5.734;2022-09-09T15:06:09;96959.91;;;22.88;55.59
55289;BME280;41154;45.394;5.734;2022-09-09T15:08:36;96963.75;;;22.87;54.92
55289;BME280;41154;45.394;5.734;2022-09-09T15:11:03;96960.16;;;22.36;54.66
55289;BME280;41154;45.394;5.734;2022-09-09T15:13:30;96960.88;;;22.15;56.11
55289;BME280;41154;45.394;5.734;2022-09-09T15:15:56;96957.19;;;22.11;58.67